sensor_id;sensor_type;location;lat;lon;timestamp;pressure;altitude;pressure_sealevel;temperature;humidity
48095;BME280;33874;52.070;-0.516;2023-02-28T00:00:30;103016.75;;;2.08;76.46
48095;BME280;33874;52.070;-0.516;2023-02-28T00:03:13;103016.23;;;2.08;76.33
48095;BME280;33874;52.070;-0.516;2023-02-28T00:05:41;103012.08;;;2.08;76.46
48095;BME280;33874;52.070;-0.516;2023-02-28T00:08:09;103011.40;;;2.07;76.42
48095;BME280;33874;52.070;-0.516;2023-02-28T00:10:38;103011.59;;;2.05;76.43
48095;BME280;33874;52.070;-0.516;2023-02-28T00:13:06;103013.02;;;2.03;76.58
48095;BME280;33874;52.070;-0.516;2023-02-28T00:15:34;103012.66;;;2.02;76.93
48095;BME280;33874;52.070;-0.516;2023-02-28T00:18:02;103013.88;;;2.03;76.88
48095;BME280;33874;52.070;-0.516;2023-02-28T00:20:30;103007.46;;;2.03;76.87
48095;BME280;33874;52.070;-0.516;2023-02-28T00:22:59;103010.80;;;1.99;76.66
48095;BME280;33874;52.070;-0.516;2023-02-28T00:25:27;103010.16;;;1.95;76.70
48095;BME280;33874;52.070;-0.516;2023-02-28T00:27:55;103007.08;;;1.92;76.82
48095;BME280;33874;52.070;-0.516;2023-02-28T00:30:23;103005.90;;;1.90;76.76
48095;BME280;33874;52.070;-0.516;2023-02-28T00:32:51;103008.34;;;1.89;77.17
48095;BME280;33874;52.070;-0.516;2023-02-28T00:35:19;103007.77;;;1.92;77.56
48095;BME280;33874;52.070;-0.516;2023-02-28T00:37:47;103005.64;;;1.97;77.76
48095;BME280;33874;52.070;-0.516;2023-02-28T00:40:16;103009.41;;;2.00;77.92
48095;BME280;33874;52.070;-0.516;2023-02-28T00:42:44;103014.36;;;2.05;78.07
48095;BME280;33874;52.070;-0.516;2023-02-28T00:45:11;103013.44;;;2.10;78.08
48095;BME280;33874;52.070;-0.516;2023-02-28T00:47:39;103013.19;;;2.15;78.27
48095;BME280;33874;52.070;-0.516;2023-02-28T00:50:08;103012.97;;;2.19;78.39
48095;BME280;33874;52.070;-0.516;2023-02-28T00:52:36;103011.20;;;2.22;78.15
48095;BME280;33874;52.070;-0.516;2023-02-28T00:55:04;103018.13;;;2.22;77.98
48095;BME280;33874;52.070;-0.516;2023-02-28T00:57:32;103019.70;;;2.22;78.06
48095;BME280;33874;52.070;-0.516;2023-02-28T01:00:00;103019.90;;;2.20;77.78
48095;BME280;33874;52.070;-0.516;2023-02-28T01:02:28;103017.66;;;2.18;77.73
48095;BME280;33874;52.070;-0.516;2023-02-28T01:04:55;103022.71;;;2.17;77.69
48095;BME280;33874;52.070;-0.516;2023-02-28T01:07:24;103026.36;;;2.16;77.72
48095;BME280;33874;52.070;-0.516;2023-02-28T01:09:52;103033.16;;;2.14;77.84
48095;BME280;33874;52.070;-0.516;2023-02-28T01:12:20;103031.65;;;2.10;77.46
48095;BME280;33874;52.070;-0.516;2023-02-28T01:14:48;103031.54;;;2.05;77.35
48095;BME280;33874;52.070;-0.516;2023-02-28T01:17:16;103031.75;;;2.02;77.43
48095;BME280;33874;52.070;-0.516;2023-02-28T01:19:44;103030.55;;;2.02;77.77
48095;BME280;33874;52.070;-0.516;2023-02-28T01:22:41;103027.95;;;2.02;77.74
48095;BME280;33874;52.070;-0.516;2023-02-28T01:25:09;103032.27;;;2.02;78.07
48095;BME280;33874;52.070;-0.516;2023-02-28T01:27:43;103032.92;;;2.05;78.21
48095;BME280;33874;52.070;-0.516;2023-02-28T01:30:14;103032.36;;;2.09;78.36
48095;BME280;33874;52.070;-0.516;2023-02-28T01:32:46;103033.33;;;2.14;78.64
48095;BME280;33874;52.070;-0.516;2023-02-28T01:35:23;103031.05;;;2.17;78.53
48095;BME280;33874;52.070;-0.516;2023-02-28T01:38:11;103035.67;;;2.21;78.64
48095;BME280;33874;52.070;-0.516;2023-02-28T01:40:57;103033.56;;;2.23;78.73
48095;BME280;33874;52.070;-0.516;2023-02-28T01:43:52;103032.27;;;2.28;78.68
48095;BME280;33874;52.070;-0.516;2023-02-28T01:49:25;103032.14;;;2.37;78.92
48095;BME280;33874;52.070;-0.516;2023-02-28T01:51:56;103035.43;;;2.38;78.45
48095;BME280;33874;52.070;-0.516;2023-02-28T01:57:20;103042.42;;;2.35;78.18
48095;BME280;33874;52.070;-0.516;2023-02-28T02:02:50;103035.46;;;2.24;77.84
48095;BME280;33874;52.070;-0.516;2023-02-28T02:05:31;103035.89;;;2.17;78.00
48095;BME280;33874;52.070;-0.516;2023-02-28T02:08:06;103032.66;;;2.12;78.14
48095;BME280;33874;52.070;-0.516;2023-02-28T02:10:57;103032.73;;;2.07;78.18
48095;BME280;33874;52.070;-0.516;2023-02-28T02:17:35;103032.23;;;2.06;79.31
48095;BME280;33874;52.070;-0.516;2023-02-28T02:25:52;103025.52;;;2.14;80.04
48095;BME280;33874;52.070;-0.516;2023-02-28T02:36:20;103027.89;;;2.20;80.59
48095;BME280;33874;52.070;-0.516;2023-02-28T02:46:28;103029.38;;;2.24;81.05
48095;BME280;33874;52.070;-0.516;2023-02-28T02:49:00;103029.32;;;2.28;81.29
48095;BME280;33874;52.070;-0.516;2023-02-28T02:51:29;103026.67;;;2.32;81.37
48095;BME280;33874;52.070;-0.516;2023-02-28T02:56:28;103018.95;;;2.38;81.46
48095;BME280;33874;52.070;-0.516;2023-02-28T02:59:00;103013.73;;;2.38;81.22
48095;BME280;33874;52.070;-0.516;2023-02-28T03:01:36;103011.83;;;2.38;81.26
48095;BME280;33874;52.070;-0.516;2023-02-28T03:07:26;103005.21;;;2.39;81.39
48095;BME280;33874;52.070;-0.516;2023-02-28T03:09:55;103008.20;;;2.37;81.26
48095;BME280;33874;52.070;-0.516;2023-02-28T03:12:27;103011.51;;;2.36;81.52
48095;BME280;33874;52.070;-0.516;2023-02-28T03:15:12;103018.95;;;2.38;81.66
48095;BME280;33874;52.070;-0.516;2023-02-28T03:18:08;103024.64;;;2.40;81.87
48095;BME280;33874;52.070;-0.516;2023-02-28T03:26:54;103019.11;;;2.51;81.95
48095;BME280;33874;52.070;-0.516;2023-02-28T03:33:10;103017.41;;;2.60;81.95
48095;BME280;33874;52.070;-0.516;2023-02-28T03:35:43;103017.52;;;2.64;81.98
48095;BME280;33874;52.070;-0.516;2023-02-28T03:38:18;103014.34;;;2.68;82.17
48095;BME280;33874;52.070;-0.516;2023-02-28T03:40:54;103010.29;;;2.72;82.26
48095;BME280;33874;52.070;-0.516;2023-02-28T03:43:27;103003.13;;;2.74;82.24
48095;BME280;33874;52.070;-0.516;2023-02-28T03:45:57;103002.73;;;2.76;82.28
48095;BME280;33874;52.070;-0.516;2023-02-28T03:51:36;102998.52;;;2.79;82.38
48095;BME280;33874;52.070;-0.516;2023-02-28T03:54:08;103001.79;;;2.82;82.45
48095;BME280;33874;52.070;-0.516;2023-02-28T03:56:55;103004.35;;;2.84;82.48
48095;BME280;33874;52.070;-0.516;2023-02-28T03:59:35;103002.90;;;2.87;82.71
48095;BME280;33874;52.070;-0.516;2023-02-28T04:02:05;103007.18;;;2.91;82.93
48095;BME280;33874;52.070;-0.516;2023-02-28T04:07:34;103010.38;;;2.98;82.86
48095;BME280;33874;52.070;-0.516;2023-02-28T04:10:03;103009.77;;;3.02;83.08
48095;BME280;33874;52.070;-0.516;2023-02-28T04:12:52;103013.20;;;3.06;83.07
48095;BME280;33874;52.070;-0.516;2023-02-28T04:15:22;103013.12;;;3.10;83.16
48095;BME280;33874;52.070;-0.516;2023-02-28T04:17:52;103010.95;;;3.14;83.16
48095;BME280;33874;52.070;-0.516;2023-02-28T04:20:20;103012.10;;;3.18;83.19
48095;BME280;33874;52.070;-0.516;2023-02-28T04:22:48;103014.14;;;3.22;83.16
48095;BME280;33874;52.070;-0.516;2023-02-28T04:25:19;103017.59;;;3.23;82.86
48095;BME280;33874;52.070;-0.516;2023-02-28T04:27:47;103016.20;;;3.23;82.65
48095;BME280;33874;52.070;-0.516;2023-02-28T04:30:23;103011.73;;;3.21;82.34
48095;BME280;33874;52.070;-0.516;2023-02-28T04:32:58;103014.45;;;3.14;81.95
48095;BME280;33874;52.070;-0.516;2023-02-28T04:35:32;103013.57;;;3.13;82.17
48095;BME280;33874;52.070;-0.516;2023-02-28T04:38:12;103017.55;;;3.15;82.11
48095;BME280;33874;52.070;-0.516;2023-02-28T04:40:59;103020.02;;;3.15;82.17
48095;BME280;33874;52.070;-0.516;2023-02-28T04:43:48;103019.95;;;3.17;82.34
48095;BME280;33874;52.070;-0.516;2023-02-28T04:49:11;103031.84;;;3.23;82.50
48095;BME280;33874;52.070;-0.516;2023-02-28T04:51:49;103034.08;;;3.23;82.38
48095;BME280;33874;52.070;-0.516;2023-02-28T04:54:45;103032.03;;;3.21;82.02
48095;BME280;33874;52.070;-0.516;2023-02-28T04:57:36;103032.80;;;3.18;81.86
48095;BME280;33874;52.070;-0.516;2023-02-28T05:00:20;103031.61;;;3.16;81.95
48095;BME280;33874;52.070;-0.516;2023-02-28T05:02:48;103032.50;;;3.15;82.15
48095;BME280;33874;52.070;-0.516;2023-02-28T05:05:37;103033.38;;;3.13;81.96
48095;BME280;33874;52.070;-0.516;2023-02-28T05:17:33;103029.13;;;3.08;81.63
48095;BME280;33874;52.070;-0.516;2023-02-28T05:20:22;103031.40;;;3.08;81.73
48095;BME280;33874;52.070;-0.516;2023-02-28T05:23:02;103036.40;;;3.10;82.10
48095;BME280;33874;52.070;-0.516;2023-02-28T05:25:35;103033.92;;;3.13;82.24
48095;BME280;33874;52.070;-0.516;2023-02-28T05:28:06;103033.86;;;3.16;82.30
48095;BME280;33874;52.070;-0.516;2023-02-28T05:30:44;103040.27;;;3.18;82.19
48095;BME280;33874;52.070;-0.516;2023-02-28T05:33:12;103038.70;;;3.17;82.27
48095;BME280;33874;52.070;-0.516;2023-02-28T05:35:44;103041.59;;;3.21;82.32
48095;BME280;33874;52.070;-0.516;2023-02-28T05:38:17;103040.50;;;3.24;82.48
48095;BME280;33874;52.070;-0.516;2023-02-28T05:40:48;103040.80;;;3.27;82.54
48095;BME280;33874;52.070;-0.516;2023-02-28T05:43:23;103040.59;;;3.29;82.57
48095;BME280;33874;52.070;-0.516;2023-02-28T05:46:12;103042.77;;;3.32;82.79
48095;BME280;33874;52.070;-0.516;2023-02-28T05:48:52;103047.05;;;3.37;82.92
48095;BME280;33874;52.070;-0.516;2023-02-28T05:51:29;103047.31;;;3.42;83.16
48095;BME280;33874;52.070;-0.516;2023-02-28T05:54:11;103048.27;;;3.47;82.80
48095;BME280;33874;52.070;-0.516;2023-02-28T05:56:43;103043.08;;;3.46;82.42
48095;BME280;33874;52.070;-0.516;2023-02-28T05:59:14;103042.19;;;3.46;82.51
48095;BME280;33874;52.070;-0.516;2023-02-28T06:01:50;103042.33;;;3.48;82.64
48095;BME280;33874;52.070;-0.516;2023-02-28T06:04:25;103045.73;;;3.51;82.94
48095;BME280;33874;52.070;-0.516;2023-02-28T06:07:16;103046.17;;;3.56;82.99
48095;BME280;33874;52.070;-0.516;2023-02-28T06:09:45;103050.46;;;3.59;82.85
48095;BME280;33874;52.070;-0.516;2023-02-28T06:12:24;103049.75;;;3.61;82.83
48095;BME280;33874;52.070;-0.516;2023-02-28T06:15:21;103054.94;;;3.62;82.74
48095;BME280;33874;52.070;-0.516;2023-02-28T06:27:17;103060.27;;;3.56;82.19
48095;BME280;33874;52.070;-0.516;2023-02-28T06:33:10;103062.04;;;3.53;82.17
48095;BME280;33874;52.070;-0.516;2023-02-28T06:35:59;103065.00;;;3.53;82.25
48095;BME280;33874;52.070;-0.516;2023-02-28T06:38:44;103067.44;;;3.53;82.24
48095;BME280;33874;52.070;-0.516;2023-02-28T06:41:51;103067.95;;;3.54;82.33
48095;BME280;33874;52.070;-0.516;2023-02-28T06:44:33;103069.02;;;3.52;82.27
48095;BME280;33874;52.070;-0.516;2023-02-28T06:47:07;103068.16;;;3.52;82.46
48095;BME280;33874;52.070;-0.516;2023-02-28T06:49:55;103070.91;;;3.54;82.72
48095;BME280;33874;52.070;-0.516;2023-02-28T06:52:23;103071.59;;;3.55;82.93
48095;BME280;33874;52.070;-0.516;2023-02-28T06:54:59;103065.98;;;3.57;82.97
48095;BME280;33874;52.070;-0.516;2023-02-28T06:57:36;103070.30;;;3.58;83.05
48095;BME280;33874;52.070;-0.516;2023-02-28T07:00:05;103074.09;;;3.60;83.23
48095;BME280;33874;52.070;-0.516;2023-02-28T07:02:38;103073.56;;;3.61;83.28
48095;BME280;33874;52.070;-0.516;2023-02-28T07:05:18;103078.58;;;3.63;83.37
48095;BME280;33874;52.070;-0.516;2023-02-28T07:07:47;103080.81;;;3.64;83.38
48095;BME280;33874;52.070;-0.516;2023-02-28T07:11:01;103078.20;;;3.64;83.47
48095;BME280;33874;52.070;-0.516;2023-02-28T07:16:03;103081.64;;;3.66;83.74
48095;BME280;33874;52.070;-0.516;2023-02-28T07:21:47;103077.43;;;3.68;84.03
48095;BME280;33874;52.070;-0.516;2023-02-28T07:24:38;103080.55;;;3.69;83.96
48095;BME280;33874;52.070;-0.516;2023-02-28T07:27:23;103078.59;;;3.71;83.99
48095;BME280;33874;52.070;-0.516;2023-02-28T07:36:14;103075.40;;;3.74;84.25
48095;BME280;33874;52.070;-0.516;2023-02-28T07:38:51;103073.61;;;3.76;84.11
48095;BME280;33874;52.070;-0.516;2023-02-28T07:41:29;103073.20;;;3.80;84.02
48095;BME280;33874;52.070;-0.516;2023-02-28T07:44:10;103073.98;;;3.85;84.34
48095;BME280;33874;52.070;-0.516;2023-02-28T07:46:54;103075.77;;;3.91;84.48
48095;BME280;33874;52.070;-0.516;2023-02-28T07:49:25;103074.13;;;3.95;84.27
48095;BME280;33874;52.070;-0.516;2023-02-28T07:51:57;103071.97;;;3.99;84.28
48095;BME280;33874;52.070;-0.516;2023-02-28T07:54:25;103074.30;;;4.04;84.20
48095;BME280;33874;52.070;-0.516;2023-02-28T07:56:56;103073.32;;;4.09;84.17
48095;BME280;33874;52.070;-0.516;2023-02-28T07:59:26;103076.82;;;4.16;84.40
48095;BME280;33874;52.070;-0.516;2023-02-28T08:01:58;103077.71;;;4.23;84.24
48095;BME280;33874;52.070;-0.516;2023-02-28T08:04:27;103076.52;;;4.30;84.15
48095;BME280;33874;52.070;-0.516;2023-02-28T08:06:56;103077.90;;;4.40;84.03
48095;BME280;33874;52.070;-0.516;2023-02-28T08:09:24;103077.29;;;4.51;83.91
48095;BME280;33874;52.070;-0.516;2023-02-28T08:11:52;103073.44;;;4.60;83.58
48095;BME280;33874;52.070;-0.516;2023-02-28T08:14:21;103069.45;;;4.66;83.37
48095;BME280;33874;52.070;-0.516;2023-02-28T08:16:57;103067.65;;;4.69;83.37
48095;BME280;33874;52.070;-0.516;2023-02-28T08:19:29;103074.27;;;4.69;83.03
48095;BME280;33874;52.070;-0.516;2023-02-28T08:21:57;103073.23;;;4.69;83.03
48095;BME280;33874;52.070;-0.516;2023-02-28T08:24:26;103076.92;;;4.67;83.01
48095;BME280;33874;52.070;-0.516;2023-02-28T08:27:07;103080.00;;;4.62;83.13
48095;BME280;33874;52.070;-0.516;2023-02-28T08:29:47;103085.50;;;4.58;83.33
48095;BME280;33874;52.070;-0.516;2023-02-28T08:32:15;103078.99;;;4.53;83.21
48095;BME280;33874;52.070;-0.516;2023-02-28T08:35:08;103079.44;;;4.48;83.41
48095;BME280;33874;52.070;-0.516;2023-02-28T08:41:02;103078.27;;;4.54;83.72
48095;BME280;33874;52.070;-0.516;2023-02-28T08:56:03;103071.92;;;4.57;83.86
48095;BME280;33874;52.070;-0.516;2023-02-28T08:58:38;103064.96;;;4.57;83.75
48095;BME280;33874;52.070;-0.516;2023-02-28T09:04:05;103061.16;;;4.56;83.93
48095;BME280;33874;52.070;-0.516;2023-02-28T09:06:41;103060.14;;;4.62;84.15
48095;BME280;33874;52.070;-0.516;2023-02-28T09:18:27;103051.06;;;4.92;84.34
48095;BME280;33874;52.070;-0.516;2023-02-28T09:45:36;103054.15;;;5.09;84.89
48095;BME280;33874;52.070;-0.516;2023-02-28T09:48:14;103056.02;;;5.18;84.82
48095;BME280;33874;52.070;-0.516;2023-02-28T09:50:52;103053.21;;;5.32;84.72
48095;BME280;33874;52.070;-0.516;2023-02-28T09:56:34;103049.13;;;5.67;84.62
48095;BME280;33874;52.070;-0.516;2023-02-28T10:05:06;103050.29;;;6.07;84.11
48095;BME280;33874;52.070;-0.516;2023-02-28T10:07:40;103053.98;;;6.12;83.96
48095;BME280;33874;52.070;-0.516;2023-02-28T10:16:05;103055.01;;;5.81;83.39
48095;BME280;33874;52.070;-0.516;2023-02-28T10:18:59;103055.87;;;5.75;83.44
48095;BME280;33874;52.070;-0.516;2023-02-28T10:21:36;103057.89;;;5.78;83.24
48095;BME280;33874;52.070;-0.516;2023-02-28T10:24:32;103051.38;;;5.81;83.25
48095;BME280;33874;52.070;-0.516;2023-02-28T10:33:50;103051.13;;;6.14;82.95
48095;BME280;33874;52.070;-0.516;2023-02-28T10:39:46;103056.33;;;6.10;82.61
48095;BME280;33874;52.070;-0.516;2023-02-28T10:42:19;103053.45;;;6.07;82.49
48095;BME280;33874;52.070;-0.516;2023-02-28T10:44:51;103048.69;;;6.08;82.79
48095;BME280;33874;52.070;-0.516;2023-02-28T10:47:33;103044.52;;;6.13;82.56
48095;BME280;33874;52.070;-0.516;2023-02-28T10:50:02;103045.91;;;6.19;82.75
48095;BME280;33874;52.070;-0.516;2023-02-28T10:55:44;103045.38;;;6.26;82.75
48095;BME280;33874;52.070;-0.516;2023-02-28T11:02:39;103036.43;;;6.04;82.90
48095;BME280;33874;52.070;-0.516;2023-02-28T11:11:16;103034.58;;;6.13;82.94
48095;BME280;33874;52.070;-0.516;2023-02-28T11:16:45;103031.44;;;6.36;83.18
48095;BME280;33874;52.070;-0.516;2023-02-28T11:25:52;103036.46;;;6.26;82.92
48095;BME280;33874;52.070;-0.516;2023-02-28T11:28:43;103036.11;;;6.26;83.01
48095;BME280;33874;52.070;-0.516;2023-02-28T11:31:21;103032.67;;;6.24;82.88
48095;BME280;33874;52.070;-0.516;2023-02-28T11:33:54;103031.27;;;6.18;82.87
48095;BME280;33874;52.070;-0.516;2023-02-28T11:55:07;103004.45;;;6.45;82.87
48095;BME280;33874;52.070;-0.516;2023-02-28T11:57:47;102998.92;;;6.54;82.68
48095;BME280;33874;52.070;-0.516;2023-02-28T12:00:26;102993.86;;;6.59;82.68
48095;BME280;33874;52.070;-0.516;2023-02-28T12:05:56;102988.35;;;6.56;82.23
48095;BME280;33874;52.070;-0.516;2023-02-28T12:08:41;102988.48;;;6.58;82.05
48095;BME280;33874;52.070;-0.516;2023-02-28T12:14:09;102975.13;;;6.60;82.05
48095;BME280;33874;52.070;-0.516;2023-02-28T12:23:01;102965.75;;;6.63;81.67
48095;BME280;33874;52.070;-0.516;2023-02-28T12:28:46;102958.75;;;6.69;81.45
48095;BME280;33874;52.070;-0.516;2023-02-28T12:40:23;102927.19;;;7.27;81.24
48095;BME280;33874;52.070;-0.516;2023-02-28T12:42:58;102926.20;;;7.44;81.06
48095;BME280;33874;52.070;-0.516;2023-02-28T12:46:16;102913.69;;;7.61;80.49
48095;BME280;33874;52.070;-0.516;2023-02-28T12:51:01;102901.52;;;7.90;80.13
48095;BME280;33874;52.070;-0.516;2023-02-28T12:59:44;102891.95;;;8.24;79.03
48095;BME280;33874;52.070;-0.516;2023-02-28T13:08:00;102877.99;;;8.18;78.10
48095;BME280;33874;52.070;-0.516;2023-02-28T13:10:43;102878.41;;;8.16;77.90
48095;BME280;33874;52.070;-0.516;2023-02-28T13:19:53;102870.23;;;8.28;77.48
48095;BME280;33874;52.070;-0.516;2023-02-28T13:50:55;102846.27;;;8.77;75.56
48095;BME280;33874;52.070;-0.516;2023-02-28T13:54:27;102846.19;;;8.79;75.41
48095;BME280;33874;52.070;-0.516;2023-02-28T13:56:53;102842.79;;;8.81;74.80
48095;BME280;33874;52.070;-0.516;2023-02-28T14:03:43;102838.08;;;8.52;74.89
48095;BME280;33874;52.070;-0.516;2023-02-28T14:46:44;102792.81;;;8.41;73.06
48095;BME280;33874;52.070;-0.516;2023-02-28T14:56:04;102779.61;;;8.26;73.69
48095;BME280;33874;52.070;-0.516;2023-02-28T15:02:39;102787.39;;;8.32;73.66
48095;BME280;33874;52.070;-0.516;2023-02-28T15:14:30;102774.67;;;8.22;73.78
48095;BME280;33874;52.070;-0.516;2023-02-28T15:17:16;102767.19;;;8.16;73.86
48095;BME280;33874;52.070;-0.516;2023-02-28T15:20:13;102764.35;;;8.13;73.72
48095;BME280;33874;52.070;-0.516;2023-02-28T15:35:42;102774.11;;;7.89;72.91
48095;BME280;33874;52.070;-0.516;2023-02-28T15:44:27;102774.06;;;7.78;73.51
48095;BME280;33874;52.070;-0.516;2023-02-28T15:47:22;102779.77;;;7.80;73.41
48095;BME280;33874;52.070;-0.516;2023-02-28T15:49:56;102790.98;;;7.80;73.70
48095;BME280;33874;52.070;-0.516;2023-02-28T15:52:33;102791.80;;;7.80;73.87
48095;BME280;33874;52.070;-0.516;2023-02-28T15:55:18;102789.52;;;7.81;73.76
48095;BME280;33874;52.070;-0.516;2023-02-28T15:58:11;102789.96;;;7.78;73.70
48095;BME280;33874;52.070;-0.516;2023-02-28T16:04:17;102797.42;;;7.62;73.82
48095;BME280;33874;52.070;-0.516;2023-02-28T16:07:02;102797.55;;;7.55;73.88
48095;BME280;33874;52.070;-0.516;2023-02-28T16:09:34;102798.16;;;7.48;73.87
48095;BME280;33874;52.070;-0.516;2023-02-28T16:12:05;102800.52;;;7.46;73.91
48095;BME280;33874;52.070;-0.516;2023-02-28T16:14:47;102799.07;;;7.48;74.03
48095;BME280;33874;52.070;-0.516;2023-02-28T16:17:27;102794.33;;;7.48;74.11
48095;BME280;33874;52.070;-0.516;2023-02-28T16:20:05;102796.30;;;7.47;74.15
48095;BME280;33874;52.070;-0.516;2023-02-28T16:22:45;102800.19;;;7.45;74.20
48095;BME280;33874;52.070;-0.516;2023-02-28T16:26:18;102800.92;;;7.40;74.21
48095;BME280;33874;52.070;-0.516;2023-02-28T16:31:20;102803.46;;;7.29;74.46
48095;BME280;33874;52.070;-0.516;2023-02-28T16:33:51;102802.89;;;7.25;74.37
48095;BME280;33874;52.070;-0.516;2023-02-28T16:36:23;102800.95;;;7.21;74.43
48095;BME280;33874;52.070;-0.516;2023-02-28T16:38:58;102795.30;;;7.18;74.41
48095;BME280;33874;52.070;-0.516;2023-02-28T16:41:27;102799.23;;;7.16;74.69
48095;BME280;33874;52.070;-0.516;2023-02-28T16:43:59;102794.09;;;7.13;74.71
48095;BME280;33874;52.070;-0.516;2023-02-28T16:46:45;102796.59;;;7.12;74.67
48095;BME280;33874;52.070;-0.516;2023-02-28T16:49:37;102800.57;;;7.13;74.67
48095;BME280;33874;52.070;-0.516;2023-02-28T16:52:23;102807.02;;;7.14;74.69
48095;BME280;33874;52.070;-0.516;2023-02-28T17:01:24;102810.79;;;7.01;74.93
48095;BME280;33874;52.070;-0.516;2023-02-28T17:03:54;102815.52;;;6.97;75.11
48095;BME280;33874;52.070;-0.516;2023-02-28T17:06:24;102818.92;;;6.94;75.08
48095;BME280;33874;52.070;-0.516;2023-02-28T17:08:59;102826.53;;;6.91;75.19
48095;BME280;33874;52.070;-0.516;2023-02-28T17:11:27;102827.54;;;6.88;75.22
48095;BME280;33874;52.070;-0.516;2023-02-28T17:14:04;102832.88;;;6.86;75.48
48095;BME280;33874;52.070;-0.516;2023-02-28T17:16:38;102833.68;;;6.83;75.42
48095;BME280;33874;52.070;-0.516;2023-02-28T17:25:52;102830.84;;;6.74;75.43
48095;BME280;33874;52.070;-0.516;2023-02-28T17:28:30;102825.52;;;6.71;75.63
48095;BME280;33874;52.070;-0.516;2023-02-28T17:31:39;102825.07;;;6.69;75.70
48095;BME280;33874;52.070;-0.516;2023-02-28T17:34:29;102836.79;;;6.64;75.50
48095;BME280;33874;52.070;-0.516;2023-02-28T17:36:59;102841.31;;;6.60;75.44
48095;BME280;33874;52.070;-0.516;2023-02-28T17:39:32;102838.30;;;6.55;75.60
48095;BME280;33874;52.070;-0.516;2023-02-28T17:42:05;102837.36;;;6.53;75.74
48095;BME280;33874;52.070;-0.516;2023-02-28T17:44:50;102837.56;;;6.51;75.84
48095;BME280;33874;52.070;-0.516;2023-02-28T17:47:31;102843.36;;;6.51;75.78
48095;BME280;33874;52.070;-0.516;2023-02-28T17:50:03;102846.02;;;6.49;75.96
48095;BME280;33874;52.070;-0.516;2023-02-28T17:52:52;102850.26;;;6.48;75.91
48095;BME280;33874;52.070;-0.516;2023-02-28T17:55:41;102844.42;;;6.45;76.02
48095;BME280;33874;52.070;-0.516;2023-02-28T17:58:09;102853.80;;;6.42;75.80
48095;BME280;33874;52.070;-0.516;2023-02-28T18:06:58;102860.90;;;6.28;76.16
48095;BME280;33874;52.070;-0.516;2023-02-28T18:09:29;102857.89;;;6.24;76.08
48095;BME280;33874;52.070;-0.516;2023-02-28T18:12:00;102858.14;;;6.21;76.30
48095;BME280;33874;52.070;-0.516;2023-02-28T18:14:48;102857.37;;;6.18;76.37
48095;BME280;33874;52.070;-0.516;2023-02-28T18:17:22;102858.34;;;6.15;76.50
48095;BME280;33874;52.070;-0.516;2023-02-28T18:19:52;102858.78;;;6.12;76.41
48095;BME280;33874;52.070;-0.516;2023-02-28T18:22:30;102861.85;;;6.10;76.39
48095;BME280;33874;52.070;-0.516;2023-02-28T18:25:32;102868.19;;;6.08;76.42
48095;BME280;33874;52.070;-0.516;2023-02-28T18:28:07;102869.98;;;6.06;76.63
48095;BME280;33874;52.070;-0.516;2023-02-28T18:30:56;102868.95;;;6.06;76.69
48095;BME280;33874;52.070;-0.516;2023-02-28T18:33:37;102873.38;;;6.04;76.79
48095;BME280;33874;52.070;-0.516;2023-02-28T18:36:09;102878.11;;;6.04;76.99
48095;BME280;33874;52.070;-0.516;2023-02-28T18:41:42;102884.08;;;6.02;76.89
48095;BME280;33874;52.070;-0.516;2023-02-28T18:44:10;102886.70;;;6.02;77.03
48095;BME280;33874;52.070;-0.516;2023-02-28T18:46:56;102890.90;;;6.01;77.31
48095;BME280;33874;52.070;-0.516;2023-02-28T18:49:27;102889.53;;;6.00;77.07
48095;BME280;33874;52.070;-0.516;2023-02-28T18:51:58;102885.55;;;6.00;77.35
48095;BME280;33874;52.070;-0.516;2023-02-28T18:54:51;102889.41;;;5.99;77.36
48095;BME280;33874;52.070;-0.516;2023-02-28T18:57:28;102889.13;;;5.97;77.41
48095;BME280;33874;52.070;-0.516;2023-02-28T19:00:07;102886.24;;;5.94;77.37
48095;BME280;33874;52.070;-0.516;2023-02-28T19:02:36;102882.29;;;5.92;77.43
48095;BME280;33874;52.070;-0.516;2023-02-28T19:05:14;102879.94;;;5.89;77.61
48095;BME280;33874;52.070;-0.516;2023-02-28T19:07:42;102880.70;;;5.86;77.61
48095;BME280;33874;52.070;-0.516;2023-02-28T19:10:13;102879.00;;;5.84;77.90
48095;BME280;33874;52.070;-0.516;2023-02-28T19:12:45;102881.32;;;5.83;77.92
48095;BME280;33874;52.070;-0.516;2023-02-28T19:17:55;102885.06;;;5.81;77.92
48095;BME280;33874;52.070;-0.516;2023-02-28T19:23:31;102886.70;;;5.78;78.19
48095;BME280;33874;52.070;-0.516;2023-02-28T19:26:32;102885.91;;;5.76;78.22
48095;BME280;33874;52.070;-0.516;2023-02-28T19:29:21;102888.34;;;5.70;78.19
48095;BME280;33874;52.070;-0.516;2023-02-28T19:31:54;102893.84;;;5.68;78.33
48095;BME280;33874;52.070;-0.516;2023-02-28T19:34:27;102892.36;;;5.65;78.25
48095;BME280;33874;52.070;-0.516;2023-02-28T19:36:59;102895.21;;;5.62;78.40
48095;BME280;33874;52.070;-0.516;2023-02-28T19:39:30;102896.85;;;5.60;78.58
48095;BME280;33874;52.070;-0.516;2023-02-28T19:42:10;102899.92;;;5.56;78.75
48095;BME280;33874;52.070;-0.516;2023-02-28T19:44:39;102905.54;;;5.49;78.87
48095;BME280;33874;52.070;-0.516;2023-02-28T19:47:10;102905.54;;;5.43;79.15
48095;BME280;33874;52.070;-0.516;2023-02-28T19:49:39;102909.16;;;5.39;79.36
48095;BME280;33874;52.070;-0.516;2023-02-28T19:52:07;102909.77;;;5.36;79.50
48095;BME280;33874;52.070;-0.516;2023-02-28T19:54:42;102911.60;;;5.33;79.80
48095;BME280;33874;52.070;-0.516;2023-02-28T19:57:15;102916.02;;;5.31;80.00
48095;BME280;33874;52.070;-0.516;2023-02-28T19:59:46;102921.09;;;5.29;80.19
48095;BME280;33874;52.070;-0.516;2023-02-28T20:02:18;102923.02;;;5.29;80.39
48095;BME280;33874;52.070;-0.516;2023-02-28T20:04:49;102921.84;;;5.28;80.58
48095;BME280;33874;52.070;-0.516;2023-02-28T20:07:28;102925.33;;;5.28;80.67
48095;BME280;33874;52.070;-0.516;2023-02-28T20:10:10;102928.14;;;5.27;80.88
48095;BME280;33874;52.070;-0.516;2023-02-28T20:12:52;102928.51;;;5.27;80.87
48095;BME280;33874;52.070;-0.516;2023-02-28T20:15:20;102923.66;;;5.25;80.96
48095;BME280;33874;52.070;-0.516;2023-02-28T20:17:48;102931.77;;;5.22;81.02
48095;BME280;33874;52.070;-0.516;2023-02-28T20:20:16;102929.25;;;5.19;81.16